sensor_id;sensor_type;location;lat;lon;timestamp;temperature;humidity
23562;DHT22;11959;49.418;8.728;2023-06-22T00:00:52;21.80;99.90
23562;DHT22;11959;49.418;8.728;2023-06-22T00:03:19;21.80;99.90
23562;DHT22;11959;49.418;8.728;2023-06-22T00:05:46;21.80;99.90
23562;DHT22;11959;49.418;8.728;2023-06-22T00:08:11;21.70;99.90
23562;DHT22;11959;49.418;8.728;2023-06-22T00:10:37;21.60;99.90
23562;DHT22;11959;49.418;8.728;2023-06-22T00:13:03;21.60;99.90
23562;DHT22;11959;49.418;8.728;2023-06-22T00:15:28;21.50;99.90
23562;DHT22;11959;49.418;8.728;2023-06-22T00:17:54;21.60;99.90
23562;DHT22;11959;49.418;8.728;2023-06-22T00:20:20;21.60;99.90
23562;DHT22;11959;49.418;8.728;2023-06-22T00:22:46;21.60;99.90
23562;DHT22;11959;49.418;8.728;2023-06-22T00:25:13;21.60;99.90
23562;DHT22;11959;49.418;8.728;2023-06-22T00:27:38;21.60;99.90
23562;DHT22;11959;49.418;8.728;2023-06-22T00:30:04;21.50;99.90
23562;DHT22;11959;49.418;8.728;2023-06-22T00:32:30;21.50;99.90
23562;DHT22;11959;49.418;8.728;2023-06-22T00:34:56;21.50;99.90
23562;DHT22;11959;49.418;8.728;2023-06-22T00:37:21;21.50;99.90
23562;DHT22;11959;49.418;8.728;2023-06-22T00:39:55;21.40;99.90
23562;DHT22;11959;49.418;8.728;2023-06-22T00:42:21;21.50;99.90
23562;DHT22;11959;49.418;8.728;2023-06-22T00:44:46;21.40;99.90
23562;DHT22;11959;49.418;8.728;2023-06-22T00:47:15;21.50;99.90
23562;DHT22;11959;49.418;8.728;2023-06-22T00:49:41;21.50;99.90
23562;DHT22;11959;49.418;8.728;2023-06-22T00:52:07;21.50;99.90
23562;DHT22;11959;49.418;8.728;2023-06-22T00:54:35;21.50;99.90
23562;DHT22;11959;49.418;8.728;2023-06-22T00:57:02;21.40;99.90
23562;DHT22;11959;49.418;8.728;2023-06-22T00:59:28;21.40;99.90
23562;DHT22;11959;49.418;8.728;2023-06-22T01:01:54;21.50;99.90
23562;DHT22;11959;49.418;8.728;2023-06-22T01:04:23;21.70;99.90
23562;DHT22;11959;49.418;8.728;2023-06-22T01:07:01;21.90;99.90
23562;DHT22;11959;49.418;8.728;2023-06-22T01:09:33;22.00;99.90
23562;DHT22;11959;49.418;8.728;2023-06-22T01:12:04;22.10;99.90
23562;DHT22;11959;49.418;8.728;2023-06-22T01:17:05;21.90;99.90
23562;DHT22;11959;49.418;8.728;2023-06-22T01:22:08;21.80;99.90
23562;DHT22;11959;49.418;8.728;2023-06-22T01:30:16;21.60;99.90
23562;DHT22;11959;49.418;8.728;2023-06-22T01:32:44;21.50;99.90
23562;DHT22;11959;49.418;8.728;2023-06-22T01:35:10;21.40;99.90
23562;DHT22;11959;49.418;8.728;2023-06-22T01:37:38;21.30;99.90
23562;DHT22;11959;49.418;8.728;2023-06-22T01:40:08;21.20;99.90
23562;DHT22;11959;49.418;8.728;2023-06-22T01:42:35;21.20;99.90
23562;DHT22;11959;49.418;8.728;2023-06-22T01:45:02;21.10;99.90
23562;DHT22;11959;49.418;8.728;2023-06-22T01:47:28;21.10;99.90
23562;DHT22;11959;49.418;8.728;2023-06-22T01:49:54;21.10;99.90
23562;DHT22;11959;49.418;8.728;2023-06-22T01:52:20;21.10;99.90
23562;DHT22;11959;49.418;8.728;2023-06-22T01:54:46;21.00;99.90
23562;DHT22;11959;49.418;8.728;2023-06-22T01:57:12;21.00;99.90
23562;DHT22;11959;49.418;8.728;2023-06-22T02:02:11;21.00;99.90
23562;DHT22;11959;49.418;8.728;2023-06-22T02:04:48;20.90;99.90
23562;DHT22;11959;49.418;8.728;2023-06-22T02:07:17;20.90;99.90
23562;DHT22;11959;49.418;8.728;2023-06-22T02:09:45;20.90;99.90
23562;DHT22;11959;49.418;8.728;2023-06-22T02:12:15;20.80;99.90
23562;DHT22;11959;49.418;8.728;2023-06-22T02:14:44;20.80;99.90
23562;DHT22;11959;49.418;8.728;2023-06-22T02:17:10;20.70;99.90
23562;DHT22;11959;49.418;8.728;2023-06-22T02:19:37;20.80;99.90
23562;DHT22;11959;49.418;8.728;2023-06-22T02:22:03;20.70;99.90
23562;DHT22;11959;49.418;8.728;2023-06-22T02:24:29;20.70;99.90
23562;DHT22;11959;49.418;8.728;2023-06-22T02:26:59;20.60;99.90
23562;DHT22;11959;49.418;8.728;2023-06-22T02:29:25;20.60;99.90
23562;DHT22;11959;49.418;8.728;2023-06-22T02:31:52;20.60;99.90
23562;DHT22;11959;49.418;8.728;2023-06-22T02:34:18;20.50;99.90
23562;DHT22;11959;49.418;8.728;2023-06-22T02:36:46;20.50;99.90
23562;DHT22;11959;49.418;8.728;2023-06-22T02:39:20;20.40;99.90
23562;DHT22;11959;49.418;8.728;2023-06-22T02:41:51;20.50;99.90
23562;DHT22;11959;49.418;8.728;2023-06-22T02:44:17;20.40;99.90
23562;DHT22;11959;49.418;8.728;2023-06-22T02:46:43;20.40;99.90
23562;DHT22;11959;49.418;8.728;2023-06-22T02:49:10;20.30;99.90
23562;DHT22;11959;49.418;8.728;2023-06-22T02:51:37;20.30;99.90
23562;DHT22;11959;49.418;8.728;2023-06-22T02:54:05;20.30;99.90
23562;DHT22;11959;49.418;8.728;2023-06-22T02:56:31;20.30;99.90
23562;DHT22;11959;49.418;8.728;2023-06-22T02:58:56;20.20;99.90
23562;DHT22;11959;49.418;8.728;2023-06-22T03:01:27;20.20;99.90
23562;DHT22;11959;49.418;8.728;2023-06-22T03:03:53;20.20;99.90
23562;DHT22;11959;49.418;8.728;2023-06-22T03:06:20;20.10;99.90
23562;DHT22;11959;49.418;8.728;2023-06-22T03:08:49;20.10;99.90
23562;DHT22;11959;49.418;8.728;2023-06-22T03:11:15;20.10;99.90
23562;DHT22;11959;49.418;8.728;2023-06-22T03:13:41;20.10;99.90
23562;DHT22;11959;49.418;8.728;2023-06-22T03:16:07;20.00;99.90
23562;DHT22;11959;49.418;8.728;2023-06-22T03:18:32;20.00;99.90
23562;DHT22;11959;49.418;8.728;2023-06-22T03:20:58;20.00;99.90
23562;DHT22;11959;49.418;8.728;2023-06-22T03:23:24;20.00;99.90
23562;DHT22;11959;49.418;8.728;2023-06-22T03:25:49;20.00;99.90
23562;DHT22;11959;49.418;8.728;2023-06-22T03:28:15;20.00;99.90
23562;DHT22;11959;49.418;8.728;2023-06-22T03:30:41;20.00;99.90
23562;DHT22;11959;49.418;8.728;2023-06-22T03:33:06;20.00;99.90
23562;DHT22;11959;49.418;8.728;2023-06-22T03:35:33;20.00;99.90
23562;DHT22;11959;49.418;8.728;2023-06-22T03:37:59;20.00;99.90
23562;DHT22;11959;49.418;8.728;2023-06-22T03:40:26;20.00;99.90
23562;DHT22;11959;49.418;8.728;2023-06-22T03:42:51;20.00;99.90
23562;DHT22;11959;49.418;8.728;2023-06-22T03:45:17;20.00;99.90
23562;DHT22;11959;49.418;8.728;2023-06-22T03:47:43;20.00;99.90
23562;DHT22;11959;49.418;8.728;2023-06-22T03:50:08;19.90;99.90
23562;DHT22;11959;49.418;8.728;2023-06-22T03:52:34;19.90;99.90
23562;DHT22;11959;49.418;8.728;2023-06-22T03:55:00;20.00;99.90
23562;DHT22;11959;49.418;8.728;2023-06-22T03:57:25;19.90;99.90
23562;DHT22;11959;49.418;8.728;2023-06-22T03:59:51;20.00;99.90
23562;DHT22;11959;49.418;8.728;2023-06-22T04:02:17;20.00;99.90
23562;DHT22;11959;49.418;8.728;2023-06-22T04:04:42;20.00;99.90
23562;DHT22;11959;49.418;8.728;2023-06-22T04:07:08;20.00;99.90
23562;DHT22;11959;49.418;8.728;2023-06-22T04:09:34;20.00;99.90
23562;DHT22;11959;49.418;8.728;2023-06-22T04:12:00;20.10;99.90
23562;DHT22;11959;49.418;8.728;2023-06-22T04:14:26;20.00;99.90
23562;DHT22;11959;49.418;8.728;2023-06-22T04:16:51;20.10;99.90
23562;DHT22;11959;49.418;8.728;2023-06-22T04:19:17;20.10;99.90
23562;DHT22;11959;49.418;8.728;2023-06-22T04:21:43;20.10;99.90
23562;DHT22;11959;49.418;8.728;2023-06-22T04:24:10;20.10;99.90
23562;DHT22;11959;49.418;8.728;2023-06-22T04:26:36;20.10;99.90
23562;DHT22;11959;49.418;8.728;2023-06-22T04:29:05;20.10;99.90
23562;DHT22;11959;49.418;8.728;2023-06-22T04:31:32;20.10;99.90
23562;DHT22;11959;49.418;8.728;2023-06-22T04:34:02;20.10;99.90
23562;DHT22;11959;49.418;8.728;2023-06-22T04:36:39;20.10;99.90
23562;DHT22;11959;49.418;8.728;2023-06-22T04:39:10;20.20;99.90
23562;DHT22;11959;49.418;8.728;2023-06-22T04:41:37;20.10;99.90
23562;DHT22;11959;49.418;8.728;2023-06-22T04:44:13;20.20;99.90
23562;DHT22;11959;49.418;8.728;2023-06-22T04:46:39;20.20;99.90
23562;DHT22;11959;49.418;8.728;2023-06-22T04:49:08;20.30;99.90
23562;DHT22;11959;49.418;8.728;2023-06-22T04:51:41;20.30;99.90
23562;DHT22;11959;49.418;8.728;2023-06-22T04:54:08;20.40;99.90
23562;DHT22;11959;49.418;8.728;2023-06-22T04:56:35;20.40;99.90
23562;DHT22;11959;49.418;8.728;2023-06-22T04:59:01;20.50;99.90
23562;DHT22;11959;49.418;8.728;2023-06-22T05:01:28;20.50;99.90
23562;DHT22;11959;49.418;8.728;2023-06-22T05:03:56;20.60;99.90
23562;DHT22;11959;49.418;8.728;2023-06-22T05:06:22;20.60;99.90
23562;DHT22;11959;49.418;8.728;2023-06-22T05:08:52;20.70;99.90
23562;DHT22;11959;49.418;8.728;2023-06-22T05:11:18;20.70;99.90
23562;DHT22;11959;49.418;8.728;2023-06-22T05:13:44;20.80;99.90
23562;DHT22;11959;49.418;8.728;2023-06-22T05:16:10;20.80;99.90
23562;DHT22;11959;49.418;8.728;2023-06-22T05:18:35;20.80;99.90
23562;DHT22;11959;49.418;8.728;2023-06-22T05:21:02;20.90;99.90
23562;DHT22;11959;49.418;8.728;2023-06-22T05:23:28;20.90;99.90
23562;DHT22;11959;49.418;8.728;2023-06-22T05:25:54;21.00;99.90
23562;DHT22;11959;49.418;8.728;2023-06-22T05:28:20;20.90;99.90
23562;DHT22;11959;49.418;8.728;2023-06-22T05:30:48;21.00;99.90
23562;DHT22;11959;49.418;8.728;2023-06-22T05:33:14;21.10;99.90
23562;DHT22;11959;49.418;8.728;2023-06-22T05:35:39;21.10;99.90
23562;DHT22;11959;49.418;8.728;2023-06-22T05:38:05;21.20;99.90
23562;DHT22;11959;49.418;8.728;2023-06-22T05:40:30;21.30;99.90
23562;DHT22;11959;49.418;8.728;2023-06-22T05:42:56;21.40;99.90
23562;DHT22;11959;49.418;8.728;2023-06-22T05:45:22;21.50;99.90
23562;DHT22;11959;49.418;8.728;2023-06-22T05:47:47;21.60;99.90
23562;DHT22;11959;49.418;8.728;2023-06-22T05:50:13;21.70;99.90
23562;DHT22;11959;49.418;8.728;2023-06-22T05:52:38;21.70;99.90
23562;DHT22;11959;49.418;8.728;2023-06-22T05:55:04;21.80;99.90
23562;DHT22;11959;49.418;8.728;2023-06-22T05:57:30;21.90;99.90
23562;DHT22;11959;49.418;8.728;2023-06-22T05:59:56;22.00;99.90
23562;DHT22;11959;49.418;8.728;2023-06-22T06:02:21;22.10;99.90
23562;DHT22;11959;49.418;8.728;2023-06-22T06:04:47;22.10;99.90
23562;DHT22;11959;49.418;8.728;2023-06-22T06:07:12;22.20;99.90
23562;DHT22;11959;49.418;8.728;2023-06-22T06:09:38;22.30;99.90
23562;DHT22;11959;49.418;8.728;2023-06-22T06:12:04;22.40;99.90
23562;DHT22;11959;49.418;8.728;2023-06-22T06:14:30;22.40;99.90
23562;DHT22;11959;49.418;8.728;2023-06-22T06:16:55;22.60;99.90
23562;DHT22;11959;49.418;8.728;2023-06-22T06:19:21;22.70;99.90
23562;DHT22;11959;49.418;8.728;2023-06-22T06:21:46;22.80;99.90
23562;DHT22;11959;49.418;8.728;2023-06-22T06:24:12;22.80;99.90
23562;DHT22;11959;49.418;8.728;2023-06-22T06:26:38;22.90;99.90
23562;DHT22;11959;49.418;8.728;2023-06-22T06:29:04;23.00;99.90
23562;DHT22;11959;49.418;8.728;2023-06-22T06:31:30;23.10;99.90
23562;DHT22;11959;49.418;8.728;2023-06-22T06:33:56;23.20;99.90
23562;DHT22;11959;49.418;8.728;2023-06-22T06:36:21;23.30;99.90
23562;DHT22;11959;49.418;8.728;2023-06-22T06:38:47;23.50;99.90
23562;DHT22;11959;49.418;8.728;2023-06-22T06:41:14;23.60;99.90
23562;DHT22;11959;49.418;8.728;2023-06-22T06:43:40;23.70;99.90
23562;DHT22;11959;49.418;8.728;2023-06-22T06:46:07;23.80;99.90
23562;DHT22;11959;49.418;8.728;2023-06-22T06:48:33;23.90;99.90
23562;DHT22;11959;49.418;8.728;2023-06-22T06:50:58;24.00;99.90
23562;DHT22;11959;49.418;8.728;2023-06-22T06:53:24;24.00;99.90
23562;DHT22;11959;49.418;8.728;2023-06-22T06:55:50;24.10;99.90
23562;DHT22;11959;49.418;8.728;2023-06-22T06:58:16;24.20;99.90
23562;DHT22;11959;49.418;8.728;2023-06-22T07:00:41;24.20;99.90
23562;DHT22;11959;49.418;8.728;2023-06-22T07:03:08;24.30;99.90
23562;DHT22;11959;49.418;8.728;2023-06-22T07:05:34;24.30;99.90
23562;DHT22;11959;49.418;8.728;2023-06-22T07:08:01;24.50;99.90
23562;DHT22;11959;49.418;8.728;2023-06-22T07:10:29;24.60;99.90
23562;DHT22;11959;49.418;8.728;2023-06-22T07:12:55;24.60;99.90
23562;DHT22;11959;49.418;8.728;2023-06-22T07:15:20;24.70;99.90
23562;DHT22;11959;49.418;8.728;2023-06-22T07:17:46;24.70;99.90
23562;DHT22;11959;49.418;8.728;2023-06-22T07:20:12;24.70;99.90
23562;DHT22;11959;49.418;8.728;2023-06-22T07:22:42;24.90;99.90
23562;DHT22;11959;49.418;8.728;2023-06-22T07:25:09;25.00;99.90
23562;DHT22;11959;49.418;8.728;2023-06-22T07:27:45;25.00;99.90
23562;DHT22;11959;49.418;8.728;2023-06-22T07:30:11;25.10;99.90
23562;DHT22;11959;49.418;8.728;2023-06-22T07:32:37;25.10;99.90
23562;DHT22;11959;49.418;8.728;2023-06-22T07:35:03;25.20;99.90
23562;DHT22;11959;49.418;8.728;2023-06-22T07:37:30;25.20;99.90
23562;DHT22;11959;49.418;8.728;2023-06-22T07:39:56;25.30;99.90
23562;DHT22;11959;49.418;8.728;2023-06-22T07:42:27;25.40;99.90
23562;DHT22;11959;49.418;8.728;2023-06-22T07:44:53;25.40;99.90
23562;DHT22;11959;49.418;8.728;2023-06-22T07:47:19;25.40;99.90
23562;DHT22;11959;49.418;8.728;2023-06-22T07:49:45;25.40;99.90
23562;DHT22;11959;49.418;8.728;2023-06-22T07:52:11;25.50;99.90
23562;DHT22;11959;49.418;8.728;2023-06-22T07:54:37;25.50;99.90
23562;DHT22;11959;49.418;8.728;2023-06-22T07:57:03;25.60;99.90
23562;DHT22;11959;49.418;8.728;2023-06-22T07:59:28;25.70;99.90
23562;DHT22;11959;49.418;8.728;2023-06-22T08:01:55;25.80;99.90
23562;DHT22;11959;49.418;8.728;2023-06-22T08:04:21;25.80;99.90
23562;DHT22;11959;49.418;8.728;2023-06-22T08:06:46;25.90;99.90
23562;DHT22;11959;49.418;8.728;2023-06-22T08:09:12;26.00;99.90
23562;DHT22;11959;49.418;8.728;2023-06-22T08:11:38;26.10;99.90
23562;DHT22;11959;49.418;8.728;2023-06-22T08:14:03;26.20;99.90
23562;DHT22;11959;49.418;8.728;2023-06-22T08:16:29;26.20;99.90
23562;DHT22;11959;49.418;8.728;2023-06-22T08:18:55;26.30;99.90
23562;DHT22;11959;49.418;8.728;2023-06-22T08:21:21;26.30;99.90
23562;DHT22;11959;49.418;8.728;2023-06-22T08:23:47;26.40;99.90
23562;DHT22;11959;49.418;8.728;2023-06-22T08:26:14;26.50;99.90
23562;DHT22;11959;49.418;8.728;2023-06-22T08:28:40;26.60;99.90
23562;DHT22;11959;49.418;8.728;2023-06-22T08:31:05;26.80;99.90
23562;DHT22;11959;49.418;8.728;2023-06-22T08:33:31;26.90;99.90
23562;DHT22;11959;49.418;8.728;2023-06-22T08:35:58;27.00;99.90
23562;DHT22;11959;49.418;8.728;2023-06-22T08:38:24;27.10;99.90
23562;DHT22;11959;49.418;8.728;2023-06-22T08:40:50;27.20;99.90
23562;DHT22;11959;49.418;8.728;2023-06-22T08:43:15;27.30;99.90
23562;DHT22;11959;49.418;8.728;2023-06-22T08:45:41;27.40;99.90
23562;DHT22;11959;49.418;8.728;2023-06-22T08:48:06;27.50;99.90
23562;DHT22;11959;49.418;8.728;2023-06-22T08:50:32;27.60;99.90
23562;DHT22;11959;49.418;8.728;2023-06-22T08:52:58;27.60;99.90
23562;DHT22;11959;49.418;8.728;2023-06-22T08:55:23;27.70;99.90
23562;DHT22;11959;49.418;8.728;2023-06-22T08:57:49;27.80;99.90
23562;DHT22;11959;49.418;8.728;2023-06-22T09:00:15;27.80;99.90
23562;DHT22;11959;49.418;8.728;2023-06-22T09:02:43;27.90;99.90
23562;DHT22;11959;49.418;8.728;2023-06-22T09:05:09;28.00;99.90
23562;DHT22;11959;49.418;8.728;2023-06-22T09:07:35;28.10;99.90
23562;DHT22;11959;49.418;8.728;2023-06-22T09:10:01;28.10;99.90
23562;DHT22;11959;49.418;8.728;2023-06-22T09:12:27;28.20;99.90
23562;DHT22;11959;49.418;8.728;2023-06-22T09:14:55;28.30;99.90
23562;DHT22;11959;49.418;8.728;2023-06-22T09:17:22;28.40;99.90
23562;DHT22;11959;49.418;8.728;2023-06-22T09:19:47;28.60;99.90
23562;DHT22;11959;49.418;8.728;2023-06-22T09:22:14;28.70;99.90
23562;DHT22;11959;49.418;8.728;2023-06-22T09:24:39;28.80;99.90
23562;DHT22;11959;49.418;8.728;2023-06-22T09:27:05;28.90;99.90
23562;DHT22;11959;49.418;8.728;2023-06-22T09:29:31;28.90;99.90
23562;DHT22;11959;49.418;8.728;2023-06-22T09:31:59;29.00;99.90
23562;DHT22;11959;49.418;8.728;2023-06-22T09:34:25;29.00;99.90
23562;DHT22;11959;49.418;8.728;2023-06-22T09:36:51;29.00;99.90
23562;DHT22;11959;49.418;8.728;2023-06-22T09:39:18;28.90;99.90
23562;DHT22;11959;49.418;8.728;2023-06-22T09:41:44;28.80;99.90
23562;DHT22;11959;49.418;8.728;2023-06-22T09:44:09;28.70;99.90
23562;DHT22;11959;49.418;8.728;2023-06-22T09:46:35;28.60;99.90
23562;DHT22;11959;49.418;8.728;2023-06-22T09:49:01;28.60;99.90
23562;DHT22;11959;49.418;8.728;2023-06-22T09:51:26;28.50;99.90
23562;DHT22;11959;49.418;8.728;2023-06-22T09:53:52;28.60;99.90
23562;DHT22;11959;49.418;8.728;2023-06-22T09:56:21;28.70;99.90
23562;DHT22;11959;49.418;8.728;2023-06-22T09:58:48;28.80;99.90
23562;DHT22;11959;49.418;8.728;2023-06-22T10:01:15;29.00;99.90
23562;DHT22;11959;49.418;8.728;2023-06-22T10:03:41;29.20;99.90
23562;DHT22;11959;49.418;8.728;2023-06-22T10:06:07;29.40;99.90
23562;DHT22;11959;49.418;8.728;2023-06-22T10:08:34;29.50;99.90
23562;DHT22;11959;49.418;8.728;2023-06-22T10:11:00;29.60;99.90
23562;DHT22;11959;49.418;8.728;2023-06-22T10:13:25;29.70;99.90
23562;DHT22;11959;49.418;8.728;2023-06-22T10:15:51;29.70;99.90
23562;DHT22;11959;49.418;8.728;2023-06-22T10:18:20;29.60;99.90
23562;DHT22;11959;49.418;8.728;2023-06-22T10:20:50;29.50;99.90
23562;DHT22;11959;49.418;8.728;2023-06-22T10:23:17;29.40;99.90
23562;DHT22;11959;49.418;8.728;2023-06-22T10:25:43;29.40;99.90
23562;DHT22;11959;49.418;8.728;2023-06-22T10:28:09;29.30;99.90
23562;DHT22;11959;49.418;8.728;2023-06-22T10:30:34;29.30;99.90
23562;DHT22;11959;49.418;8.728;2023-06-22T10:33:00;29.30;99.90
23562;DHT22;11959;49.418;8.728;2023-06-22T10:35:25;29.30;99.90
23562;DHT22;11959;49.418;8.728;2023-06-22T10:37:52;29.30;99.90
23562;DHT22;11959;49.418;8.728;2023-06-22T10:40:17;29.40;99.90
23562;DHT22;11959;49.418;8.728;2023-06-22T10:42:44;29.30;99.90
23562;DHT22;11959;49.418;8.728;2023-06-22T10:45:10;29.30;99.90
23562;DHT22;11959;49.418;8.728;2023-06-22T10:47:36;29.30;99.90
23562;DHT22;11959;49.418;8.728;2023-06-22T10:50:02;29.20;99.90
23562;DHT22;11959;49.418;8.728;2023-06-22T10:52:28;29.10;99.90
23562;DHT22;11959;49.418;8.728;2023-06-22T10:54:54;29.10;99.90
23562;DHT22;11959;49.418;8.728;2023-06-22T10:57:21;29.10;99.90
23562;DHT22;11959;49.418;8.728;2023-06-22T10:59:47;29.10;99.90
23562;DHT22;11959;49.418;8.728;2023-06-22T11:02:12;29.20;99.90
23562;DHT22;11959;49.418;8.728;2023-06-22T11:04:38;29.20;99.90
23562;DHT22;11959;49.418;8.728;2023-06-22T11:07:04;29.30;99.90
23562;DHT22;11959;49.418;8.728;2023-06-22T11:09:31;29.50;99.90
23562;DHT22;11959;49.418;8.728;2023-06-22T11:11:57;29.60;99.90
23562;DHT22;11959;49.418;8.728;2023-06-22T11:14:24;29.70;99.90
23562;DHT22;11959;49.418;8.728;2023-06-22T11:16:50;29.80;99.90
23562;DHT22;11959;49.418;8.728;2023-06-22T11:19:16;29.90;99.90
23562;DHT22;11959;49.418;8.728;2023-06-22T11:21:41;30.00;99.90
23562;DHT22;11959;49.418;8.728;2023-06-22T11:24:07;29.90;99.90
23562;DHT22;11959;49.418;8.728;2023-06-22T11:26:33;29.90;99.90
23562;DHT22;11959;49.418;8.728;2023-06-22T11:28:59;30.00;99.90
23562;DHT22;11959;49.418;8.728;2023-06-22T11:31:25;30.20;99.90
23562;DHT22;11959;49.418;8.728;2023-06-22T11:33:52;30.30;99.90
23562;DHT22;11959;49.418;8.728;2023-06-22T11:36:18;30.40;99.90
23562;DHT22;11959;49.418;8.728;2023-06-22T11:38:43;30.40;99.90
23562;DHT22;11959;49.418;8.728;2023-06-22T11:41:10;30.40;99.90
23562;DHT22;11959;49.418;8.728;2023-06-22T11:43:36;30.30;99.90
23562;DHT22;11959;49.418;8.728;2023-06-22T11:46:03;30.30;99.90
23562;DHT22;11959;49.418;8.728;2023-06-22T11:48:30;30.30;99.90
23562;DHT22;11959;49.418;8.728;2023-06-22T11:50:56;30.40;99.90
23562;DHT22;11959;49.418;8.728;2023-06-22T11:53:23;30.40;99.90
23562;DHT22;11959;49.418;8.728;2023-06-22T11:55:49;30.40;99.90
23562;DHT22;11959;49.418;8.728;2023-06-22T11:58:15;30.60;99.90
23562;DHT22;11959;49.418;8.728;2023-06-22T12:00:41;30.70;99.90
23562;DHT22;11959;49.418;8.728;2023-06-22T12:03:07;30.70;99.90
23562;DHT22;11959;49.418;8.728;2023-06-22T12:05:33;30.70;99.90
23562;DHT22;11959;49.418;8.728;2023-06-22T12:07:59;30.60;99.90
23562;DHT22;11959;49.418;8.728;2023-06-22T12:10:25;30.60;99.90
23562;DHT22;11959;49.418;8.728;2023-06-22T12:12:51;30.60;99.90
23562;DHT22;11959;49.418;8.728;2023-06-22T12:15:17;30.60;99.90
23562;DHT22;11959;49.418;8.728;2023-06-22T12:17:43;30.50;99.90
23562;DHT22;11959;49.418;8.728;2023-06-22T12:20:09;30.50;99.90
23562;DHT22;11959;49.418;8.728;2023-06-22T12:22:35;30.50;99.90
23562;DHT22;11959;49.418;8.728;2023-06-22T12:25:03;30.50;99.90
23562;DHT22;11959;49.418;8.728;2023-06-22T12:27:29;30.50;99.90
23562;DHT22;11959;49.418;8.728;2023-06-22T12:29:56;30.60;99.90
23562;DHT22;11959;49.418;8.728;2023-06-22T12:32:21;30.60;99.90
23562;DHT22;11959;49.418;8.728;2023-06-22T12:34:47;30.60;99.90
23562;DHT22;11959;49.418;8.728;2023-06-22T12:37:13;30.60;99.90
23562;DHT22;11959;49.418;8.728;2023-06-22T12:39:40;30.80;99.90
23562;DHT22;11959;49.418;8.728;2023-06-22T12:42:07;31.00;99.90
23562;DHT22;11959;49.418;8.728;2023-06-22T12:44:34;31.10;99.90
23562;DHT22;11959;49.418;8.728;2023-06-22T12:47:00;31.30;99.90
23562;DHT22;11959;49.418;8.728;2023-06-22T12:49:26;31.40;99.90
23562;DHT22;11959;49.418;8.728;2023-06-22T12:51:51;31.40;99.90
23562;DHT22;11959;49.418;8.728;2023-06-22T12:54:17;31.50;99.90
23562;DHT22;11959;49.418;8.728;2023-06-22T12:56:42;31.30;99.90
23562;DHT22;11959;49.418;8.728;2023-06-22T12:59:10;31.20;99.90
23562;DHT22;11959;49.418;8.728;2023-06-22T13:01:36;31.10;99.90
23562;DHT22;11959;49.418;8.728;2023-06-22T13:04:02;31.00;99.90
23562;DHT22;11959;49.418;8.728;2023-06-22T13:06:28;30.90;99.90
23562;DHT22;11959;49.418;8.728;2023-06-22T13:08:54;30.90;99.90
23562;DHT22;11959;49.418;8.728;2023-06-22T13:11:20;30.80;99.90
23562;DHT22;11959;49.418;8.728;2023-06-22T13:13:46;30.80;99.90
23562;DHT22;11959;49.418;8.728;2023-06-22T13:16:12;30.90;99.90
23562;DHT22;11959;49.418;8.728;2023-06-22T13:18:38;30.90;99.90
23562;DHT22;11959;49.418;8.728;2023-06-22T13:21:04;30.90;99.90
23562;DHT22;11959;49.418;8.728;2023-06-22T13:23:30;31.00;99.90
23562;DHT22;11959;49.418;8.728;2023-06-22T13:25:57;31.10;99.90
23562;DHT22;11959;49.418;8.728;2023-06-22T13:28:22;31.10;99.90
23562;DHT22;11959;49.418;8.728;2023-06-22T13:30:48;31.00;99.90
23562;DHT22;11959;49.418;8.728;2023-06-22T13:33:14;31.00;99.90
23562;DHT22;11959;49.418;8.728;2023-06-22T13:35:40;30.90;99.90
23562;DHT22;11959;49.418;8.728;2023-06-22T13:38:11;30.90;99.90
23562;DHT22;11959;49.418;8.728;2023-06-22T13:40:37;30.80;99.90
23562;DHT22;11959;49.418;8.728;2023-06-22T13:43:04;30.90;99.90
23562;DHT22;11959;49.418;8.728;2023-06-22T13:45:30;30.90;99.90
23562;DHT22;11959;49.418;8.728;2023-06-22T13:47:56;30.90;99.90
23562;DHT22;11959;49.418;8.728;2023-06-22T13:50:21;30.90;99.90
23562;DHT22;11959;49.418;8.728;2023-06-22T13:52:47;30.90;99.90
23562;DHT22;11959;49.418;8.728;2023-06-22T13:55:12;30.90;99.90
23562;DHT22;11959;49.418;8.728;2023-06-22T13:57:40;31.00;99.90
23562;DHT22;11959;49.418;8.728;2023-06-22T14:00:07;31.00;99.90
23562;DHT22;11959;49.418;8.728;2023-06-22T14:02:34;31.00;99.90
23562;DHT22;11959;49.418;8.728;2023-06-22T14:05:00;31.00;99.90
23562;DHT22;11959;49.418;8.728;2023-06-22T14:07:25;30.80;99.90
23562;DHT22;11959;49.418;8.728;2023-06-22T14:09:51;30.70;99.90
23562;DHT22;11959;49.418;8.728;2023-06-22T14:12:17;30.50;99.90
23562;DHT22;11959;49.418;8.728;2023-06-22T14:14:45;30.40;99.90
23562;DHT22;11959;49.418;8.728;2023-06-22T14:17:11;30.30;99.90
23562;DHT22;11959;49.418;8.728;2023-06-22T14:19:37;30.20;99.90
23562;DHT22;11959;49.418;8.728;2023-06-22T14:22:03;30.10;99.90
23562;DHT22;11959;49.418;8.728;2023-06-22T14:24:29;30.00;99.90
23562;DHT22;11959;49.418;8.728;2023-06-22T14:26:55;29.90;99.90
23562;DHT22;11959;49.418;8.728;2023-06-22T14:29:21;29.80;99.90
23562;DHT22;11959;49.418;8.728;2023-06-22T14:31:48;29.60;99.90
23562;DHT22;11959;49.418;8.728;2023-06-22T14:34:14;29.60;99.90
23562;DHT22;11959;49.418;8.728;2023-06-22T14:36:40;29.50;99.90
23562;DHT22;11959;49.418;8.728;2023-06-22T14:39:05;29.40;99.90
23562;DHT22;11959;49.418;8.728;2023-06-22T14:41:31;29.40;99.90
23562;DHT22;11959;49.418;8.728;2023-06-22T14:43:57;29.20;99.90
23562;DHT22;11959;49.418;8.728;2023-06-22T14:46:23;29.20;99.90
23562;DHT22;11959;49.418;8.728;2023-06-22T14:48:48;29.00;99.90
23562;DHT22;11959;49.418;8.728;2023-06-22T14:51:14;28.80;99.90
23562;DHT22;11959;49.418;8.728;2023-06-22T14:53:42;28.60;99.90
23562;DHT22;11959;49.418;8.728;2023-06-22T14:56:08;28.50;99.90
23562;DHT22;11959;49.418;8.728;2023-06-22T14:58:33;28.30;99.90
23562;DHT22;11959;49.418;8.728;2023-06-22T15:01:01;28.10;99.90
23562;DHT22;11959;49.418;8.728;2023-06-22T15:03:27;28.10;99.90
23562;DHT22;11959;49.418;8.728;2023-06-22T15:05:54;28.10;99.90
23562;DHT22;11959;49.418;8.728;2023-06-22T15:08:21;28.10;99.90
23562;DHT22;11959;49.418;8.728;2023-06-22T15:10:46;28.00;99.90
23562;DHT22;11959;49.418;8.728;2023-06-22T15:13:12;27.90;99.90
23562;DHT22;11959;49.418;8.728;2023-06-22T15:15:38;27.70;99.90
23562;DHT22;11959;49.418;8.728;2023-06-22T15:18:04;27.70;99.90
23562;DHT22;11959;49.418;8.728;2023-06-22T15:20:29;27.70;99.90
23562;DHT22;11959;49.418;8.728;2023-06-22T15:22:57;27.60;99.90
23562;DHT22;11959;49.418;8.728;2023-06-22T15:25:22;27.70;99.90
23562;DHT22;11959;49.418;8.728;2023-06-22T15:27:48;27.80;99.90
23562;DHT22;11959;49.418;8.728;2023-06-22T15:30:14;28.00;99.90
23562;DHT22;11959;49.418;8.728;2023-06-22T15:32:43;28.10;99.90
23562;DHT22;11959;49.418;8.728;2023-06-22T15:35:10;28.30;99.90
23562;DHT22;11959;49.418;8.728;2023-06-22T15:37:35;28.50;99.90